LECO/LCG METAR and TAF weather

Enter ICAO airport designator
Station Type Date Time Source
LECO METAR 2019/04/23 00:00 UTC NOAA

LECO 230000Z AUTO 20012KT CAVOK 10/07 Q0994


Station Type Date Time Source
LECO Decoded METAR 2019/04/23 00:00 UTC NOAA

La Coruna / Alvedro, Spain (LECO) 43-18N 008-23W 103M
Apr 22, 2019 - 08:00 PM EDT / 2019.04.23 0000 UTC
Wind: from the SSW (200 degrees) at 14 MPH (12 KT):0
Visibility: greater than 7 mile(s):0
Temperature: 50 F (10 C)
Dew Point: 44 F (7 C)
Relative Humidity: 81%
Pressure (altimeter): 29.35 in. Hg (0994 hPa)
ob: LECO 230000Z AUTO 20012KT CAVOK 10/07 Q0994
cycle: 0

Station Type Date Time Source
LECO TAF 2019/04/22 21:52 UTC NOAA

TAF
AMD LECO 222141Z 2221/2321 24006KT 9999 SCT020 BKN040 TX14/2315Z TN07/2305Z
TEMPO 2221/2301 RA PROB30
TEMPO 2301/2309 RA
TEMPO 2309/2318 RA PROB30
TEMPO 2309/2312 3000 TSRA SCT030CB
TEMPO 2310/2318 30011KT

Example: see airport list